»·PEaware :: N149CD KVNY-KSBA

N149CD :: KVNY-KSBA

FLIGHT INFORMATION

Flight Status: Arrived
Operator: Privately registered:
United States
More flights under this callsign
Pilot: Nathan E. (30132)
Aircraft: CESSNA 172 SKYHAWK
(C172)
More flights by this aircraft type
Origin: KVNY Van Nuys
United States
Destination: KSBA Santa Barbara Mun
United States
More flights between these airports :: More routes between these airports
Route: +CANOG3 FIM V186 DEANO V27 KWANG+
File this flight plan on PilotEdge
Remarks: TEC route BURP39
Altitude:
(Current/Filed)
6,000ft
Speed:
(Current/Filed)
110kts
Departed: 02-Dec-20 07:38 PM
Arrived: 02-Dec-20 08:20 PM
Distance/Time
Traveled:
68nm/0:41
Distance/Time
To Go:
Arrived

Flight Plot

Page will automatically refresh every two minutes.

Flight plan parsing failed; only flown route is shown


Map Options




Map Legend


Flown Route
Filed Route
Departure Airport
Arrival Airport
Navaid (VOR, NDB)
Fix

Horizontal Profiles

Position Reports

Time Latitude Longitude Heading Altitude Ground
Speed
02-Dec-20 19:15 34.208672 -118.492033 132 806ft 0kts
02-Dec-20 19:16 34.208672 -118.492033 132 806ft 0kts
02-Dec-20 19:17 34.208671 -118.492032 132 806ft 0kts
02-Dec-20 19:18 34.208671 -118.492032 132 806ft 0kts
02-Dec-20 19:19 34.208671 -118.492032 132 806ft 0kts
02-Dec-20 19:20 34.208671 -118.492032 132 806ft 0kts
02-Dec-20 19:21 34.208671 -118.492032 132 806ft 0kts
02-Dec-20 19:22 34.208671 -118.492032 132 806ft 0kts
02-Dec-20 19:23 34.208671 -118.492032 132 806ft 0kts
02-Dec-20 19:24 34.208671 -118.492032 132 806ft 0kts
02-Dec-20 19:25 34.208671 -118.492032 132 806ft 0kts
02-Dec-20 19:26 34.208671 -118.492032 132 806ft 0kts
02-Dec-20 19:27 34.208671 -118.492032 132 806ft 0kts
02-Dec-20 19:28 34.208671 -118.492032 132 806ft 0kts
02-Dec-20 19:29 34.208671 -118.492032 132 806ft 0kts
02-Dec-20 19:30 34.208671 -118.492032 132 806ft 0kts
02-Dec-20 19:31 34.206584 -118.491235 174 806ft 16kts
02-Dec-20 19:32 34.202110 -118.490610 167 806ft 16kts
02-Dec-20 19:33 34.197141 -118.489920 128 806ft 0kts
02-Dec-20 19:34 34.197141 -118.489920 128 806ft 0kts
02-Dec-20 19:35 34.197141 -118.489920 128 806ft 0kts
02-Dec-20 19:36 34.197089 -118.489310 86 806ft 9kts
02-Dec-20 19:37 34.208493 -118.490810 347 1112ft 65kts
02-Dec-20 19:38 34.219540 -118.504024 266 1898ft 78kts
02-Dec-20 19:39 34.214402 -118.530075 264 2718ft 80kts
02-Dec-20 19:40 34.211194 -118.556231 285 3529ft 77kts
02-Dec-20 19:41 34.213973 -118.581940 285 4313ft 77kts
02-Dec-20 19:42 34.216694 -118.607624 285 5058ft 77kts
02-Dec-20 19:43 34.219422 -118.633438 285 5769ft 77kts
02-Dec-20 19:44 34.222745 -118.664327 282 5982ft 110kts
02-Dec-20 19:45 34.226640 -118.701631 281 5978ft 111kts
02-Dec-20 19:46 34.230445 -118.737988 281 5977ft 107kts
02-Dec-20 19:48 34.234261 -118.774504 280 5976ft 110kts
02-Dec-20 19:49 34.238080 -118.811192 280 5992ft 110kts
02-Dec-20 19:50 34.241923 -118.848218 280 5991ft 110kts
02-Dec-20 19:51 34.245723 -118.884939 279 5991ft 108kts
02-Dec-20 19:52 34.249443 -118.920981 279 5991ft 107kts
02-Dec-20 19:53 34.253179 -118.957287 279 5991ft 109kts
02-Dec-20 19:54 34.256905 -118.993607 279 5991ft 109kts
02-Dec-20 19:55 34.260631 -119.030037 278 5991ft 109kts
02-Dec-20 19:56 34.264359 -119.066619 278 5982ft 109kts
02-Dec-20 19:57 34.268085 -119.103267 279 5983ft 109kts
02-Dec-20 19:58 34.271826 -119.140166 279 5985ft 111kts
02-Dec-20 19:59 34.275579 -119.177294 279 5987ft 111kts
02-Dec-20 20:00 34.279349 -119.214715 279 5988ft 112kts
02-Dec-20 20:01 34.283087 -119.251876 279 5853ft 111kts
02-Dec-20 20:02 34.286855 -119.289448 279 5356ft 113kts
02-Dec-20 20:02 34.288120 -119.302115 279 5188ft 112kts
02-Dec-20 20:04 34.291254 -119.333540 279 4771ft 112kts
02-Dec-20 20:04 34.293494 -119.356055 279 4472ft 113kts
02-Dec-20 20:06 34.297877 -119.400321 279 3995ft 116kts
02-Dec-20 20:06 34.301068 -119.432632 279 3991ft 115kts
02-Dec-20 20:07 34.304883 -119.471308 279 3991ft 116kts
02-Dec-20 20:08 34.308766 -119.510164 284 3989ft 115kts
02-Dec-20 20:09 34.321213 -119.545369 298 3990ft 114kts
02-Dec-20 20:10 34.334889 -119.580617 298 3990ft 115kts
02-Dec-20 20:11 34.348365 -119.615374 298 3764ft 111kts
02-Dec-20 20:12 34.361625 -119.649606 298 3200ft 114kts
02-Dec-20 20:13 34.375073 -119.684389 298 2595ft 113kts
02-Dec-20 20:14 34.387832 -119.719195 295 1996ft 113kts
02-Dec-20 20:15 34.400941 -119.753988 297 1399ft 113kts
02-Dec-20 20:16 34.414083 -119.787898 297 876ft 105kts
02-Dec-20 20:17 34.425748 -119.815534 291 702ft 73kts
02-Dec-20 20:18 34.427853 -119.837755 269 14ft 47kts
02-Dec-20 20:19 34.428301 -119.841898 348 14ft 8kts
02-Dec-20 20:20 34.428440 -119.841937 345 13ft 8kts
02-Dec-20 20:21 34.431321 -119.837746 70 13ft 29kts
02-Dec-20 20:22 34.432672 -119.836153 347 13ft 0kts

Navigation Log

Ident Type
Flight plan parsing failed, navigation log unavailable